sensor_id;sensor_type;location;lat;lon;timestamp;temperature;humidity
5278;DHT22;2662;51.194;6.614;2023-06-04T00:01:36;14.90;86.40
5278;DHT22;2662;51.194;6.614;2023-06-04T00:04:03;14.80;86.80
5278;DHT22;2662;51.194;6.614;2023-06-04T00:06:30;14.80;87.30
5278;DHT22;2662;51.194;6.614;2023-06-04T00:08:57;14.80;87.70
5278;DHT22;2662;51.194;6.614;2023-06-04T00:11:23;14.70;88.10
5278;DHT22;2662;51.194;6.614;2023-06-04T00:13:53;14.70;88.80
5278;DHT22;2662;51.194;6.614;2023-06-04T00:16:20;14.60;90.00
5278;DHT22;2662;51.194;6.614;2023-06-04T00:18:46;14.60;89.50
5278;DHT22;2662;51.194;6.614;2023-06-04T00:21:13;14.60;89.70
5278;DHT22;2662;51.194;6.614;2023-06-04T00:23:40;14.60;90.00
5278;DHT22;2662;51.194;6.614;2023-06-04T00:26:06;14.60;90.10
5278;DHT22;2662;51.194;6.614;2023-06-04T00:28:33;14.60;90.10
5278;DHT22;2662;51.194;6.614;2023-06-04T00:31:04;14.60;90.40
5278;DHT22;2662;51.194;6.614;2023-06-04T00:33:31;14.50;90.90
5278;DHT22;2662;51.194;6.614;2023-06-04T00:35:58;14.50;91.60
5278;DHT22;2662;51.194;6.614;2023-06-04T00:38:24;14.40;92.40
5278;DHT22;2662;51.194;6.614;2023-06-04T00:40:52;14.30;92.90
5278;DHT22;2662;51.194;6.614;2023-06-04T00:43:19;14.30;93.30
5278;DHT22;2662;51.194;6.614;2023-06-04T00:45:46;14.30;93.20
5278;DHT22;2662;51.194;6.614;2023-06-04T00:48:14;14.30;93.70
5278;DHT22;2662;51.194;6.614;2023-06-04T00:50:41;14.30;93.90
5278;DHT22;2662;51.194;6.614;2023-06-04T00:53:07;14.20;94.40
5278;DHT22;2662;51.194;6.614;2023-06-04T00:55:34;14.20;94.90
5278;DHT22;2662;51.194;6.614;2023-06-04T00:58:01;14.20;95.10
5278;DHT22;2662;51.194;6.614;2023-06-04T01:00:29;14.10;95.30
5278;DHT22;2662;51.194;6.614;2023-06-04T01:02:58;14.10;95.50
5278;DHT22;2662;51.194;6.614;2023-06-04T01:05:36;14.10;96.10
5278;DHT22;2662;51.194;6.614;2023-06-04T01:08:04;14.10;96.30
5278;DHT22;2662;51.194;6.614;2023-06-04T01:10:34;14.10;96.30
5278;DHT22;2662;51.194;6.614;2023-06-04T01:13:01;14.00;96.60
5278;DHT22;2662;51.194;6.614;2023-06-04T01:15:27;14.00;96.80
5278;DHT22;2662;51.194;6.614;2023-06-04T01:17:58;13.90;97.30
5278;DHT22;2662;51.194;6.614;2023-06-04T01:20:34;13.90;97.90
5278;DHT22;2662;51.194;6.614;2023-06-04T01:23:19;13.90;97.70
5278;DHT22;2662;51.194;6.614;2023-06-04T01:25:50;13.80;97.90
5278;DHT22;2662;51.194;6.614;2023-06-04T01:28:17;13.80;98.20
5278;DHT22;2662;51.194;6.614;2023-06-04T01:30:46;13.80;98.50
5278;DHT22;2662;51.194;6.614;2023-06-04T01:33:16;13.80;98.80
5278;DHT22;2662;51.194;6.614;2023-06-04T01:35:44;13.70;99.10
5278;DHT22;2662;51.194;6.614;2023-06-04T01:38:11;13.70;99.60
5278;DHT22;2662;51.194;6.614;2023-06-04T01:40:37;13.60;99.90
5278;DHT22;2662;51.194;6.614;2023-06-04T01:43:04;13.60;99.90
5278;DHT22;2662;51.194;6.614;2023-06-04T01:45:31;13.60;99.90
5278;DHT22;2662;51.194;6.614;2023-06-04T01:48:00;13.60;99.90
5278;DHT22;2662;51.194;6.614;2023-06-04T01:50:27;13.50;99.90
5278;DHT22;2662;51.194;6.614;2023-06-04T01:52:55;13.50;99.90
5278;DHT22;2662;51.194;6.614;2023-06-04T01:55:21;13.50;99.90
5278;DHT22;2662;51.194;6.614;2023-06-04T01:57:50;13.50;99.90
5278;DHT22;2662;51.194;6.614;2023-06-04T02:00:17;13.40;99.90
5278;DHT22;2662;51.194;6.614;2023-06-04T02:02:46;13.30;99.90
5278;DHT22;2662;51.194;6.614;2023-06-04T02:05:14;13.30;99.90
5278;DHT22;2662;51.194;6.614;2023-06-04T02:07:43;13.30;99.90
5278;DHT22;2662;51.194;6.614;2023-06-04T02:10:12;13.30;99.90
5278;DHT22;2662;51.194;6.614;2023-06-04T02:12:40;13.20;99.90
5278;DHT22;2662;51.194;6.614;2023-06-04T02:15:10;13.20;99.90
5278;DHT22;2662;51.194;6.614;2023-06-04T02:17:36;13.10;99.90
5278;DHT22;2662;51.194;6.614;2023-06-04T02:20:06;13.00;99.90
5278;DHT22;2662;51.194;6.614;2023-06-04T02:22:35;13.00;99.90
5278;DHT22;2662;51.194;6.614;2023-06-04T02:25:02;13.00;99.90
5278;DHT22;2662;51.194;6.614;2023-06-04T02:27:30;13.00;99.90
5278;DHT22;2662;51.194;6.614;2023-06-04T02:29:57;13.00;99.90
5278;DHT22;2662;51.194;6.614;2023-06-04T02:32:24;13.00;99.90
5278;DHT22;2662;51.194;6.614;2023-06-04T02:34:50;13.00;99.90
5278;DHT22;2662;51.194;6.614;2023-06-04T02:37:17;12.90;99.90
5278;DHT22;2662;51.194;6.614;2023-06-04T02:39:44;12.90;99.90
5278;DHT22;2662;51.194;6.614;2023-06-04T02:42:10;12.90;99.90
5278;DHT22;2662;51.194;6.614;2023-06-04T02:44:38;12.90;99.90
5278;DHT22;2662;51.194;6.614;2023-06-04T02:47:06;12.80;99.90
5278;DHT22;2662;51.194;6.614;2023-06-04T02:49:33;12.80;99.90
5278;DHT22;2662;51.194;6.614;2023-06-04T02:51:59;12.80;99.90
5278;DHT22;2662;51.194;6.614;2023-06-04T02:54:26;12.80;99.90
5278;DHT22;2662;51.194;6.614;2023-06-04T02:56:53;12.70;99.90
5278;DHT22;2662;51.194;6.614;2023-06-04T02:59:20;12.70;99.90
5278;DHT22;2662;51.194;6.614;2023-06-04T03:01:48;12.70;99.90
5278;DHT22;2662;51.194;6.614;2023-06-04T03:04:15;12.70;99.90
5278;DHT22;2662;51.194;6.614;2023-06-04T03:06:41;12.70;99.90
5278;DHT22;2662;51.194;6.614;2023-06-04T03:09:10;12.60;99.90
5278;DHT22;2662;51.194;6.614;2023-06-04T03:11:37;12.60;99.90
5278;DHT22;2662;51.194;6.614;2023-06-04T03:14:04;12.60;99.90
5278;DHT22;2662;51.194;6.614;2023-06-04T03:16:30;12.60;99.90
5278;DHT22;2662;51.194;6.614;2023-06-04T03:18:59;12.60;99.90
5278;DHT22;2662;51.194;6.614;2023-06-04T03:21:26;12.50;99.90
5278;DHT22;2662;51.194;6.614;2023-06-04T03:23:54;12.50;99.90
5278;DHT22;2662;51.194;6.614;2023-06-04T03:26:21;12.50;99.90
5278;DHT22;2662;51.194;6.614;2023-06-04T03:28:47;12.50;99.90
5278;DHT22;2662;51.194;6.614;2023-06-04T03:31:14;12.50;99.90
5278;DHT22;2662;51.194;6.614;2023-06-04T03:33:41;12.50;99.90
5278;DHT22;2662;51.194;6.614;2023-06-04T03:36:09;12.40;99.90
5278;DHT22;2662;51.194;6.614;2023-06-04T03:38:36;12.50;99.90
5278;DHT22;2662;51.194;6.614;2023-06-04T03:41:03;12.50;99.90
5278;DHT22;2662;51.194;6.614;2023-06-04T03:43:29;12.50;99.90
5278;DHT22;2662;51.194;6.614;2023-06-04T03:45:56;12.50;99.90
5278;DHT22;2662;51.194;6.614;2023-06-04T03:48:23;12.50;99.90
5278;DHT22;2662;51.194;6.614;2023-06-04T03:50:50;12.50;99.90
5278;DHT22;2662;51.194;6.614;2023-06-04T03:53:18;12.60;99.90
5278;DHT22;2662;51.194;6.614;2023-06-04T03:55:45;12.60;99.90
5278;DHT22;2662;51.194;6.614;2023-06-04T03:58:12;12.60;99.90
5278;DHT22;2662;51.194;6.614;2023-06-04T04:00:40;12.70;99.90
5278;DHT22;2662;51.194;6.614;2023-06-04T04:03:07;12.70;99.90
5278;DHT22;2662;51.194;6.614;2023-06-04T04:05:35;12.70;99.90
5278;DHT22;2662;51.194;6.614;2023-06-04T04:08:02;12.70;99.90
5278;DHT22;2662;51.194;6.614;2023-06-04T04:10:30;12.70;99.90
5278;DHT22;2662;51.194;6.614;2023-06-04T04:12:57;12.80;99.90
5278;DHT22;2662;51.194;6.614;2023-06-04T04:15:24;12.80;99.90
5278;DHT22;2662;51.194;6.614;2023-06-04T04:17:50;12.90;99.90
5278;DHT22;2662;51.194;6.614;2023-06-04T04:20:18;12.90;99.90
5278;DHT22;2662;51.194;6.614;2023-06-04T04:22:44;13.00;99.90
5278;DHT22;2662;51.194;6.614;2023-06-04T04:25:11;12.90;99.90
5278;DHT22;2662;51.194;6.614;2023-06-04T04:27:39;13.00;99.90
5278;DHT22;2662;51.194;6.614;2023-06-04T04:30:07;13.10;99.90
5278;DHT22;2662;51.194;6.614;2023-06-04T04:32:35;13.10;99.90
5278;DHT22;2662;51.194;6.614;2023-06-04T04:35:04;13.20;99.90
5278;DHT22;2662;51.194;6.614;2023-06-04T04:37:33;13.20;99.90
5278;DHT22;2662;51.194;6.614;2023-06-04T04:40:06;13.30;99.90
5278;DHT22;2662;51.194;6.614;2023-06-04T04:42:34;13.30;99.90
5278;DHT22;2662;51.194;6.614;2023-06-04T04:45:03;13.40;99.90
5278;DHT22;2662;51.194;6.614;2023-06-04T04:47:30;13.40;99.90
5278;DHT22;2662;51.194;6.614;2023-06-04T04:49:56;13.50;99.90
5278;DHT22;2662;51.194;6.614;2023-06-04T04:52:23;13.50;99.90
5278;DHT22;2662;51.194;6.614;2023-06-04T04:54:50;13.60;99.90
5278;DHT22;2662;51.194;6.614;2023-06-04T04:57:21;13.60;99.90
5278;DHT22;2662;51.194;6.614;2023-06-04T04:59:47;13.70;99.90
5278;DHT22;2662;51.194;6.614;2023-06-04T05:02:15;13.70;99.90
5278;DHT22;2662;51.194;6.614;2023-06-04T05:04:42;13.70;99.90
5278;DHT22;2662;51.194;6.614;2023-06-04T05:07:09;13.80;99.90
5278;DHT22;2662;51.194;6.614;2023-06-04T05:09:36;13.90;99.90
5278;DHT22;2662;51.194;6.614;2023-06-04T05:12:03;13.90;99.90
5278;DHT22;2662;51.194;6.614;2023-06-04T05:14:29;14.00;99.90
5278;DHT22;2662;51.194;6.614;2023-06-04T05:16:56;14.00;99.90
5278;DHT22;2662;51.194;6.614;2023-06-04T05:19:25;14.10;99.90
5278;DHT22;2662;51.194;6.614;2023-06-04T05:21:51;14.20;99.90
5278;DHT22;2662;51.194;6.614;2023-06-04T05:24:18;14.30;99.90
5278;DHT22;2662;51.194;6.614;2023-06-04T05:26:45;14.50;99.90
5278;DHT22;2662;51.194;6.614;2023-06-04T05:29:13;14.60;99.90
5278;DHT22;2662;51.194;6.614;2023-06-04T05:31:40;15.50;99.90
5278;DHT22;2662;51.194;6.614;2023-06-04T05:34:07;17.50;99.90
5278;DHT22;2662;51.194;6.614;2023-06-04T05:36:36;19.30;99.90
5278;DHT22;2662;51.194;6.614;2023-06-04T05:39:03;20.70;99.80
5278;DHT22;2662;51.194;6.614;2023-06-04T05:41:29;22.40;98.10
5278;DHT22;2662;51.194;6.614;2023-06-04T05:43:56;23.70;93.00
5278;DHT22;2662;51.194;6.614;2023-06-04T05:46:23;24.60;91.80
5278;DHT22;2662;51.194;6.614;2023-06-04T05:48:50;25.40;86.70
5278;DHT22;2662;51.194;6.614;2023-06-04T05:51:17;25.60;81.50
5278;DHT22;2662;51.194;6.614;2023-06-04T05:53:45;26.40;80.80
5278;DHT22;2662;51.194;6.614;2023-06-04T05:56:12;27.20;78.20
5278;DHT22;2662;51.194;6.614;2023-06-04T05:58:38;27.90;73.50
5278;DHT22;2662;51.194;6.614;2023-06-04T06:01:05;29.20;71.10
5278;DHT22;2662;51.194;6.614;2023-06-04T06:03:32;29.80;66.30
5278;DHT22;2662;51.194;6.614;2023-06-04T06:05:59;29.90;64.30
5278;DHT22;2662;51.194;6.614;2023-06-04T06:08:26;30.40;62.40
5278;DHT22;2662;51.194;6.614;2023-06-04T06:10:54;30.20;59.90
5278;DHT22;2662;51.194;6.614;2023-06-04T06:13:22;30.00;59.20
5278;DHT22;2662;51.194;6.614;2023-06-04T06:15:48;29.90;59.80
5278;DHT22;2662;51.194;6.614;2023-06-04T06:18:15;31.00;58.00
5278;DHT22;2662;51.194;6.614;2023-06-04T06:20:42;31.90;56.10
5278;DHT22;2662;51.194;6.614;2023-06-04T06:23:09;30.50;54.30
5278;DHT22;2662;51.194;6.614;2023-06-04T06:25:36;29.20;55.90
5278;DHT22;2662;51.194;6.614;2023-06-04T06:28:07;29.80;56.10
5278;DHT22;2662;51.194;6.614;2023-06-04T06:30:33;30.00;56.00
5278;DHT22;2662;51.194;6.614;2023-06-04T06:33:00;29.90;56.10
5278;DHT22;2662;51.194;6.614;2023-06-04T06:35:27;30.30;55.80
5278;DHT22;2662;51.194;6.614;2023-06-04T06:37:53;31.40;54.80
5278;DHT22;2662;51.194;6.614;2023-06-04T06:40:20;31.80;54.00
5278;DHT22;2662;51.194;6.614;2023-06-04T06:42:48;32.00;53.30
5278;DHT22;2662;51.194;6.614;2023-06-04T06:45:17;31.90;52.60
5278;DHT22;2662;51.194;6.614;2023-06-04T06:47:45;32.20;51.90
5278;DHT22;2662;51.194;6.614;2023-06-04T06:50:11;32.00;50.90
5278;DHT22;2662;51.194;6.614;2023-06-04T06:52:38;31.70;51.00
5278;DHT22;2662;51.194;6.614;2023-06-04T06:55:06;31.50;50.60
5278;DHT22;2662;51.194;6.614;2023-06-04T06:57:33;30.50;50.30
5278;DHT22;2662;51.194;6.614;2023-06-04T07:00:00;29.70;50.90
5278;DHT22;2662;51.194;6.614;2023-06-04T07:02:28;28.70;51.50
5278;DHT22;2662;51.194;6.614;2023-06-04T07:04:55;29.20;51.70
5278;DHT22;2662;51.194;6.614;2023-06-04T07:07:22;28.70;51.30
5278;DHT22;2662;51.194;6.614;2023-06-04T07:09:48;28.90;51.80
5278;DHT22;2662;51.194;6.614;2023-06-04T07:12:15;29.20;51.00
5278;DHT22;2662;51.194;6.614;2023-06-04T07:14:42;28.90;51.90
5278;DHT22;2662;51.194;6.614;2023-06-04T07:17:09;29.20;51.60
5278;DHT22;2662;51.194;6.614;2023-06-04T07:19:37;30.50;52.50
5278;DHT22;2662;51.194;6.614;2023-06-04T07:22:04;30.70;50.40
5278;DHT22;2662;51.194;6.614;2023-06-04T07:24:30;31.50;50.70
5278;DHT22;2662;51.194;6.614;2023-06-04T07:26:57;30.80;50.60
5278;DHT22;2662;51.194;6.614;2023-06-04T07:29:24;31.20;49.80
5278;DHT22;2662;51.194;6.614;2023-06-04T07:31:51;31.40;48.90
5278;DHT22;2662;51.194;6.614;2023-06-04T07:34:17;30.10;49.20
5278;DHT22;2662;51.194;6.614;2023-06-04T07:36:46;29.90;49.50
5278;DHT22;2662;51.194;6.614;2023-06-04T07:39:13;29.10;49.60
5278;DHT22;2662;51.194;6.614;2023-06-04T07:41:39;29.20;50.10
5278;DHT22;2662;51.194;6.614;2023-06-04T07:44:06;29.50;49.70
5278;DHT22;2662;51.194;6.614;2023-06-04T07:46:33;30.20;49.50
5278;DHT22;2662;51.194;6.614;2023-06-04T07:49:00;31.10;49.30
5278;DHT22;2662;51.194;6.614;2023-06-04T07:51:26;32.10;49.30
5278;DHT22;2662;51.194;6.614;2023-06-04T07:53:54;31.60;47.90
5278;DHT22;2662;51.194;6.614;2023-06-04T07:56:21;31.20;48.00
5278;DHT22;2662;51.194;6.614;2023-06-04T07:58:48;30.50;47.80
5278;DHT22;2662;51.194;6.614;2023-06-04T08:01:15;30.50;47.00
5278;DHT22;2662;51.194;6.614;2023-06-04T08:03:42;30.60;48.80
5278;DHT22;2662;51.194;6.614;2023-06-04T08:06:09;31.60;48.00
5278;DHT22;2662;51.194;6.614;2023-06-04T08:08:36;31.50;47.20
5278;DHT22;2662;51.194;6.614;2023-06-04T08:11:04;31.20;47.60
5278;DHT22;2662;51.194;6.614;2023-06-04T08:13:31;30.40;47.20
5278;DHT22;2662;51.194;6.614;2023-06-04T08:15:57;30.50;47.70
5278;DHT22;2662;51.194;6.614;2023-06-04T08:18:24;30.70;47.40
5278;DHT22;2662;51.194;6.614;2023-06-04T08:20:51;30.70;47.10
5278;DHT22;2662;51.194;6.614;2023-06-04T08:23:18;30.80;47.50
5278;DHT22;2662;51.194;6.614;2023-06-04T08:25:44;31.40;47.30
5278;DHT22;2662;51.194;6.614;2023-06-04T08:28:14;31.80;47.80
5278;DHT22;2662;51.194;6.614;2023-06-04T08:30:42;32.50;47.30
5278;DHT22;2662;51.194;6.614;2023-06-04T08:33:08;31.70;46.50
5278;DHT22;2662;51.194;6.614;2023-06-04T08:35:36;32.20;46.80
5278;DHT22;2662;51.194;6.614;2023-06-04T08:38:02;32.40;46.50
5278;DHT22;2662;51.194;6.614;2023-06-04T08:40:29;33.00;45.00
5278;DHT22;2662;51.194;6.614;2023-06-04T08:42:56;32.40;44.20
5278;DHT22;2662;51.194;6.614;2023-06-04T08:45:25;32.60;44.70
5278;DHT22;2662;51.194;6.614;2023-06-04T08:47:53;32.70;44.50
5278;DHT22;2662;51.194;6.614;2023-06-04T08:50:21;32.30;46.00
5278;DHT22;2662;51.194;6.614;2023-06-04T08:52:52;32.60;43.00
5278;DHT22;2662;51.194;6.614;2023-06-04T08:55:20;33.00;41.70
5278;DHT22;2662;51.194;6.614;2023-06-04T08:57:49;33.60;42.80
5278;DHT22;2662;51.194;6.614;2023-06-04T09:00:17;33.20;42.10
5278;DHT22;2662;51.194;6.614;2023-06-04T09:02:46;32.20;41.50
5278;DHT22;2662;51.194;6.614;2023-06-04T09:05:19;31.80;42.10
5278;DHT22;2662;51.194;6.614;2023-06-04T09:07:46;31.30;41.80
5278;DHT22;2662;51.194;6.614;2023-06-04T09:10:17;30.00;42.90
5278;DHT22;2662;51.194;6.614;2023-06-04T09:12:47;30.10;43.80
5278;DHT22;2662;51.194;6.614;2023-06-04T09:15:14;30.60;44.00
5278;DHT22;2662;51.194;6.614;2023-06-04T09:17:40;30.50;43.90
5278;DHT22;2662;51.194;6.614;2023-06-04T09:20:18;30.50;43.80
5278;DHT22;2662;51.194;6.614;2023-06-04T09:22:45;30.20;42.10
5278;DHT22;2662;51.194;6.614;2023-06-04T09:25:19;30.60;41.40
5278;DHT22;2662;51.194;6.614;2023-06-04T09:27:46;30.70;41.70
5278;DHT22;2662;51.194;6.614;2023-06-04T09:30:13;31.40;41.40
5278;DHT22;2662;51.194;6.614;2023-06-04T09:32:40;30.60;40.70
5278;DHT22;2662;51.194;6.614;2023-06-04T09:35:12;30.50;43.00
5278;DHT22;2662;51.194;6.614;2023-06-04T09:37:39;30.70;41.40
5278;DHT22;2662;51.194;6.614;2023-06-04T09:40:07;30.80;42.10
5278;DHT22;2662;51.194;6.614;2023-06-04T09:42:44;29.70;41.70
5278;DHT22;2662;51.194;6.614;2023-06-04T09:45:11;29.50;41.00
5278;DHT22;2662;51.194;6.614;2023-06-04T09:47:39;29.30;43.00
5278;DHT22;2662;51.194;6.614;2023-06-04T09:50:07;29.00;42.70
5278;DHT22;2662;51.194;6.614;2023-06-04T09:52:36;29.20;41.90
5278;DHT22;2662;51.194;6.614;2023-06-04T09:55:03;28.40;42.60
5278;DHT22;2662;51.194;6.614;2023-06-04T09:57:31;28.60;44.00
5278;DHT22;2662;51.194;6.614;2023-06-04T10:00:02;29.30;43.30
5278;DHT22;2662;51.194;6.614;2023-06-04T10:02:34;30.10;42.10
5278;DHT22;2662;51.194;6.614;2023-06-04T10:05:01;29.50;41.30
5278;DHT22;2662;51.194;6.614;2023-06-04T10:07:29;29.60;42.10
5278;DHT22;2662;51.194;6.614;2023-06-04T10:09:58;29.10;43.00
5278;DHT22;2662;51.194;6.614;2023-06-04T10:12:27;29.00;42.50
5278;DHT22;2662;51.194;6.614;2023-06-04T10:14:59;28.50;42.10
5278;DHT22;2662;51.194;6.614;2023-06-04T10:17:29;28.20;43.10
5278;DHT22;2662;51.194;6.614;2023-06-04T10:19:56;29.30;44.20
5278;DHT22;2662;51.194;6.614;2023-06-04T10:22:24;29.60;44.40
5278;DHT22;2662;51.194;6.614;2023-06-04T10:24:51;28.90;42.80
5278;DHT22;2662;51.194;6.614;2023-06-04T10:27:20;28.70;43.20
5278;DHT22;2662;51.194;6.614;2023-06-04T10:29:49;27.80;43.30
5278;DHT22;2662;51.194;6.614;2023-06-04T10:32:17;28.40;43.80
5278;DHT22;2662;51.194;6.614;2023-06-04T10:34:45;28.40;42.60
5278;DHT22;2662;51.194;6.614;2023-06-04T10:37:19;28.10;44.20
5278;DHT22;2662;51.194;6.614;2023-06-04T10:39:51;28.00;43.40
5278;DHT22;2662;51.194;6.614;2023-06-04T10:42:19;27.90;44.00
5278;DHT22;2662;51.194;6.614;2023-06-04T10:44:48;27.70;44.10
5278;DHT22;2662;51.194;6.614;2023-06-04T10:47:19;28.20;43.80
5278;DHT22;2662;51.194;6.614;2023-06-04T10:49:47;27.60;42.90
5278;DHT22;2662;51.194;6.614;2023-06-04T10:52:13;27.40;43.50
5278;DHT22;2662;51.194;6.614;2023-06-04T10:54:42;27.60;45.10
5278;DHT22;2662;51.194;6.614;2023-06-04T10:57:13;27.40;43.10
5278;DHT22;2662;51.194;6.614;2023-06-04T10:59:41;26.90;44.90
5278;DHT22;2662;51.194;6.614;2023-06-04T11:02:08;26.60;44.60
5278;DHT22;2662;51.194;6.614;2023-06-04T11:04:36;26.80;45.40
5278;DHT22;2662;51.194;6.614;2023-06-04T11:07:05;26.90;44.40
5278;DHT22;2662;51.194;6.614;2023-06-04T11:09:34;26.00;43.90
5278;DHT22;2662;51.194;6.614;2023-06-04T11:12:02;25.70;45.00
5278;DHT22;2662;51.194;6.614;2023-06-04T11:14:28;25.50;45.30
5278;DHT22;2662;51.194;6.614;2023-06-04T11:16:57;25.20;45.30
5278;DHT22;2662;51.194;6.614;2023-06-04T11:19:23;25.20;45.70
5278;DHT22;2662;51.194;6.614;2023-06-04T11:21:50;25.40;44.90
5278;DHT22;2662;51.194;6.614;2023-06-04T11:24:17;24.80;43.70
5278;DHT22;2662;51.194;6.614;2023-06-04T11:26:44;24.60;44.70
5278;DHT22;2662;51.194;6.614;2023-06-04T11:29:12;24.90;45.00
5278;DHT22;2662;51.194;6.614;2023-06-04T11:31:42;25.00;44.90
5278;DHT22;2662;51.194;6.614;2023-06-04T11:34:10;25.20;45.60
5278;DHT22;2662;51.194;6.614;2023-06-04T11:36:39;24.90;44.70
5278;DHT22;2662;51.194;6.614;2023-06-04T11:39:06;24.90;44.80
5278;DHT22;2662;51.194;6.614;2023-06-04T11:41:33;25.00;45.10
5278;DHT22;2662;51.194;6.614;2023-06-04T11:44:03;24.80;45.20
5278;DHT22;2662;51.194;6.614;2023-06-04T11:46:32;25.20;47.90
5278;DHT22;2662;51.194;6.614;2023-06-04T11:48:59;25.30;45.30
5278;DHT22;2662;51.194;6.614;2023-06-04T11:51:27;25.00;44.50
5278;DHT22;2662;51.194;6.614;2023-06-04T11:53:54;25.20;44.10
5278;DHT22;2662;51.194;6.614;2023-06-04T11:56:22;25.20;44.60
5278;DHT22;2662;51.194;6.614;2023-06-04T11:58:51;25.50;44.50
5278;DHT22;2662;51.194;6.614;2023-06-04T12:01:18;25.50;44.80
5278;DHT22;2662;51.194;6.614;2023-06-04T12:03:45;25.30;44.50
5278;DHT22;2662;51.194;6.614;2023-06-04T12:06:13;25.40;43.90
5278;DHT22;2662;51.194;6.614;2023-06-04T12:08:49;25.30;43.10
5278;DHT22;2662;51.194;6.614;2023-06-04T12:11:27;25.30;45.00
5278;DHT22;2662;51.194;6.614;2023-06-04T12:13:55;25.30;43.40
5278;DHT22;2662;51.194;6.614;2023-06-04T12:16:22;25.50;43.00
5278;DHT22;2662;51.194;6.614;2023-06-04T12:18:49;25.50;43.10
5278;DHT22;2662;51.194;6.614;2023-06-04T12:21:18;25.60;42.90
5278;DHT22;2662;51.194;6.614;2023-06-04T12:23:45;25.60;43.10
5278;DHT22;2662;51.194;6.614;2023-06-04T12:26:21;25.40;44.20
5278;DHT22;2662;51.194;6.614;2023-06-04T12:28:59;25.30;43.00
5278;DHT22;2662;51.194;6.614;2023-06-04T12:31:26;25.60;44.20
5278;DHT22;2662;51.194;6.614;2023-06-04T12:33:59;25.60;43.10
5278;DHT22;2662;51.194;6.614;2023-06-04T12:36:26;25.80;43.60
5278;DHT22;2662;51.194;6.614;2023-06-04T12:38:57;25.70;42.90
5278;DHT22;2662;51.194;6.614;2023-06-04T12:41:25;25.70;42.40
5278;DHT22;2662;51.194;6.614;2023-06-04T12:43:52;25.70;43.10
5278;DHT22;2662;51.194;6.614;2023-06-04T12:46:19;25.50;42.00
5278;DHT22;2662;51.194;6.614;2023-06-04T12:48:47;25.50;42.60
5278;DHT22;2662;51.194;6.614;2023-06-04T12:51:13;25.30;40.20
5278;DHT22;2662;51.194;6.614;2023-06-04T12:53:40;24.90;37.60
5278;DHT22;2662;51.194;6.614;2023-06-04T12:56:07;24.70;37.80
5278;DHT22;2662;51.194;6.614;2023-06-04T12:58:35;25.00;40.60
5278;DHT22;2662;51.194;6.614;2023-06-04T13:01:03;25.20;40.50
5278;DHT22;2662;51.194;6.614;2023-06-04T13:03:31;25.30;41.50
5278;DHT22;2662;51.194;6.614;2023-06-04T13:05:58;25.50;41.80
5278;DHT22;2662;51.194;6.614;2023-06-04T13:08:24;25.70;41.00
5278;DHT22;2662;51.194;6.614;2023-06-04T13:10:51;25.70;40.60
5278;DHT22;2662;51.194;6.614;2023-06-04T13:13:18;25.60;40.80
5278;DHT22;2662;51.194;6.614;2023-06-04T13:15:47;25.10;40.80
5278;DHT22;2662;51.194;6.614;2023-06-04T13:18:13;25.10;39.20
5278;DHT22;2662;51.194;6.614;2023-06-04T13:20:41;24.90;39.00
5278;DHT22;2662;51.194;6.614;2023-06-04T13:23:08;25.20;38.50
5278;DHT22;2662;51.194;6.614;2023-06-04T13:25:37;25.10;38.70
5278;DHT22;2662;51.194;6.614;2023-06-04T13:28:04;25.30;39.70
5278;DHT22;2662;51.194;6.614;2023-06-04T13:30:31;25.40;38.70
5278;DHT22;2662;51.194;6.614;2023-06-04T13:32:59;25.50;38.90
5278;DHT22;2662;51.194;6.614;2023-06-04T13:35:26;25.40;38.20
5278;DHT22;2662;51.194;6.614;2023-06-04T13:37:52;25.40;37.30
5278;DHT22;2662;51.194;6.614;2023-06-04T13:40:19;25.40;37.70
5278;DHT22;2662;51.194;6.614;2023-06-04T13:42:46;25.30;39.90
5278;DHT22;2662;51.194;6.614;2023-06-04T13:45:13;25.40;40.60
5278;DHT22;2662;51.194;6.614;2023-06-04T13:47:39;25.40;40.60
5278;DHT22;2662;51.194;6.614;2023-06-04T13:50:09;25.70;41.00
5278;DHT22;2662;51.194;6.614;2023-06-04T13:52:35;25.90;40.00
5278;DHT22;2662;51.194;6.614;2023-06-04T13:55:02;26.00;40.10
5278;DHT22;2662;51.194;6.614;2023-06-04T13:57:29;25.80;39.20
5278;DHT22;2662;51.194;6.614;2023-06-04T13:59:56;25.70;40.70
5278;DHT22;2662;51.194;6.614;2023-06-04T14:02:23;25.70;40.80
5278;DHT22;2662;51.194;6.614;2023-06-04T14:04:50;25.80;39.60
5278;DHT22;2662;51.194;6.614;2023-06-04T14:07:18;25.90;40.70
5278;DHT22;2662;51.194;6.614;2023-06-04T14:09:45;26.00;38.50
5278;DHT22;2662;51.194;6.614;2023-06-04T14:12:11;26.00;39.00
5278;DHT22;2662;51.194;6.614;2023-06-04T14:14:38;25.80;39.40
5278;DHT22;2662;51.194;6.614;2023-06-04T14:17:06;25.80;39.60
5278;DHT22;2662;51.194;6.614;2023-06-04T14:19:32;25.80;40.00
5278;DHT22;2662;51.194;6.614;2023-06-04T14:22:00;26.00;40.40
5278;DHT22;2662;51.194;6.614;2023-06-04T14:24:28;26.00;41.00
5278;DHT22;2662;51.194;6.614;2023-06-04T14:26:55;25.90;41.30
5278;DHT22;2662;51.194;6.614;2023-06-04T14:29:22;25.90;41.60
5278;DHT22;2662;51.194;6.614;2023-06-04T14:31:49;25.80;41.20
5278;DHT22;2662;51.194;6.614;2023-06-04T14:34:16;25.70;41.60
5278;DHT22;2662;51.194;6.614;2023-06-04T14:36:42;25.90;42.20
5278;DHT22;2662;51.194;6.614;2023-06-04T14:39:09;26.00;41.80
5278;DHT22;2662;51.194;6.614;2023-06-04T14:41:37;25.90;41.40
5278;DHT22;2662;51.194;6.614;2023-06-04T14:44:04;26.00;42.80
5278;DHT22;2662;51.194;6.614;2023-06-04T14:46:30;26.00;42.60
5278;DHT22;2662;51.194;6.614;2023-06-04T14:48:57;26.00;41.20
5278;DHT22;2662;51.194;6.614;2023-06-04T14:51:24;25.70;41.10
5278;DHT22;2662;51.194;6.614;2023-06-04T14:53:50;25.90;43.10
5278;DHT22;2662;51.194;6.614;2023-06-04T14:56:17;26.00;42.00
5278;DHT22;2662;51.194;6.614;2023-06-04T14:58:45;25.60;41.20
5278;DHT22;2662;51.194;6.614;2023-06-04T15:01:12;25.50;42.10
5278;DHT22;2662;51.194;6.614;2023-06-04T15:03:39;25.50;42.60
5278;DHT22;2662;51.194;6.614;2023-06-04T15:06:05;25.50;42.50
5278;DHT22;2662;51.194;6.614;2023-06-04T15:08:32;25.50;41.70
5278;DHT22;2662;51.194;6.614;2023-06-04T15:10:59;25.70;43.00
5278;DHT22;2662;51.194;6.614;2023-06-04T15:13:26;25.90;43.10
5278;DHT22;2662;51.194;6.614;2023-06-04T15:15:54;26.00;44.00
5278;DHT22;2662;51.194;6.614;2023-06-04T15:18:21;26.00;42.50
5278;DHT22;2662;51.194;6.614;2023-06-04T15:20:48;26.00;42.20
5278;DHT22;2662;51.194;6.614;2023-06-04T15:23:14;26.10;42.10
5278;DHT22;2662;51.194;6.614;2023-06-04T15:25:43;25.90;42.30
5278;DHT22;2662;51.194;6.614;2023-06-04T15:28:10;26.00;42.70
5278;DHT22;2662;51.194;6.614;2023-06-04T15:30:37;26.00;42.60
5278;DHT22;2662;51.194;6.614;2023-06-04T15:33:05;25.90;42.20
5278;DHT22;2662;51.194;6.614;2023-06-04T15:35:31;25.80;43.80
5278;DHT22;2662;51.194;6.614;2023-06-04T15:37:58;25.90;43.50
5278;DHT22;2662;51.194;6.614;2023-06-04T15:40:25;25.90;42.80
5278;DHT22;2662;51.194;6.614;2023-06-04T15:42:51;25.80;44.40
5278;DHT22;2662;51.194;6.614;2023-06-04T15:45:18;25.80;43.10
5278;DHT22;2662;51.194;6.614;2023-06-04T15:47:49;25.90;43.30
5278;DHT22;2662;51.194;6.614;2023-06-04T15:50:18;26.00;43.30
5278;DHT22;2662;51.194;6.614;2023-06-04T15:52:45;25.90;42.80
5278;DHT22;2662;51.194;6.614;2023-06-04T15:55:12;25.70;43.80
5278;DHT22;2662;51.194;6.614;2023-06-04T15:57:38;25.90;43.60
5278;DHT22;2662;51.194;6.614;2023-06-04T16:00:07;25.70;41.90
5278;DHT22;2662;51.194;6.614;2023-06-04T16:02:35;25.50;42.00
5278;DHT22;2662;51.194;6.614;2023-06-04T16:05:02;25.50;42.60